Time;durP1;ratioP1;P1;durP2;ratioP2;P2;SDS_P1;SDS_P2;PMS_P1;PMS_P2;Temp;Humidity;BMP_temperature;BMP_pressure;BME280_temperature;BME280_humidity;BME280_pressure;Samples;Min_cycle;Max_cycle;Signal;HPM_P1;HPM_P2
2023/03/10 00:00:11;;;;;;;2.37;1.60;;;;;6.00;92131.00;;;;7396568;19;20504;-74
2023/03/10 00:02:45;;;;;;;8.53;1.80;;;;;6.00;92125.00;;;;7395726;19;20158;-74
2023/03/10 00:05:19;;;;;;;4.90;1.73;;;;;6.00;92126.00;;;;7398248;19;20117;-74
2023/03/10 00:07:49;;;;;;;4.57;1.67;;;;;5.80;92118.00;;;;7400721;19;20611;-74
2023/03/10 00:10:22;;;;;;;7.83;1.70;;;;;5.80;92120.00;;;;7404325;19;20461;-74
2023/03/10 00:12:50;;;;;;;8.67;2.40;;;;;5.80;92110.00;;;;7404882;19;20153;-75
2023/03/10 00:15:23;;;;;;;8.77;1.87;;;;;5.90;92111.00;;;;7401211;19;20185;-75
2023/03/10 00:17:57;;;;;;;5.47;2.20;;;;;5.80;92100.00;;;;7403896;19;20125;-74
2023/03/10 00:20:31;;;;;;;4.33;1.93;;;;;5.80;92091.00;;;;7404645;19;20593;-75
2023/03/10 00:23:05;;;;;;;4.80;1.97;;;;;5.80;92082.00;;;;7405744;19;20159;-74
2023/03/10 00:25:33;;;;;;;6.70;2.27;;;;;5.80;92086.00;;;;7403578;19;20136;-74
2023/03/10 00:28:06;;;;;;;6.73;1.83;;;;;6.00;92086.00;;;;7394113;19;20608;-74
2023/03/10 00:30:34;;;;;;;8.83;2.10;;;;;6.00;92083.00;;;;7398746;19;20133;-74
2023/03/10 00:33:07;;;;;;;6.57;2.03;;;;;6.00;92091.00;;;;7405209;19;20148;-74
2023/03/10 00:35:35;;;;;;;5.83;2.07;;;;;6.00;92081.00;;;;7405462;19;20471;-74
2023/03/10 00:38:08;;;;;;;3.17;1.90;;;;;6.00;92081.00;;;;7406270;19;20488;-75
2023/03/10 00:40:36;;;;;;;7.93;2.23;;;;;5.80;92070.00;;;;7403923;19;20129;-74
2023/03/10 00:43:09;;;;;;;5.47;1.90;;;;;5.80;92075.00;;;;7403540;19;20204;-75
2023/03/10 00:45:43;;;;;;;3.33;1.80;;;;;5.90;92073.00;;;;7405074;19;20141;-75
2023/03/10 00:48:17;;;;;;;4.87;2.10;;;;;6.00;92068.00;;;;7404741;19;20132;-74
2023/03/10 00:50:45;;;;;;;5.67;2.07;;;;;6.10;92054.00;;;;7403310;19;20208;-75
2023/03/10 00:53:18;;;;;;;5.70;1.80;;;;;6.00;92058.00;;;;7404727;19;20619;-74
2023/03/10 00:55:58;;;;;;;5.23;1.73;;;;;6.20;92051.00;;;;7404513;19;20189;-75
2023/03/10 00:58:33;;;;;;;6.10;1.97;;;;;6.20;92056.00;;;;7403516;19;20154;-74
2023/03/10 01:01:01;;;;;;;5.93;1.80;;;;;6.30;92048.00;;;;7402204;19;20243;-74
2023/03/10 01:03:35;;;;;;;5.90;1.80;;;;;6.30;92046.00;;;;7401725;19;20160;-74
2023/03/10 01:06:12;;;;;;;3.03;1.40;;;;;6.30;92038.00;;;;7402847;19;20137;-75
2023/03/10 01:08:53;;;;;;;2.33;1.30;;;;;6.40;92035.00;;;;7400018;19;20156;-75
2023/03/10 01:11:29;;;;;;;4.70;1.70;;;;;6.50;92030.00;;;;7399936;19;20133;-75
2023/03/10 01:14:06;;;;;;;4.73;1.50;;;;;6.60;92024.00;;;;7401879;19;20161;-74
2023/03/10 01:16:41;;;;;;;4.53;1.63;;;;;6.50;92031.00;;;;7402537;19;20151;-74
2023/03/10 01:19:09;;;;;;;3.47;1.23;;;;;6.50;92043.00;;;;7400045;19;20204;-75
2023/03/10 01:21:44;;;;;;;2.50;1.37;;;;;6.60;92022.00;;;;7403313;19;20152;-75
2023/03/10 01:24:14;;;;;;;2.90;1.50;;;;;6.60;92032.00;;;;7402357;19;20136;-74
2023/03/10 01:26:49;;;;;;;2.93;1.63;;;;;6.60;92039.00;;;;7398651;19;20193;-75
2023/03/10 01:29:16;;;;;;;5.50;1.60;;;;;6.70;92032.00;;;;7402269;19;20129;-74
2023/03/10 01:31:49;;;;;;;4.60;1.77;;;;;6.60;92015.00;;;;7401243;19;20158;-74
2023/03/10 01:34:26;;;;;;;1.60;1.30;;;;;6.60;92016.00;;;;7400335;19;20143;-75
2023/03/10 01:37:01;;;;;;;4.53;1.33;;;;;6.60;92013.00;;;;7401579;19;20204;-74
2023/03/10 01:39:35;;;;;;;2.33;1.43;;;;;6.60;92010.00;;;;7402082;19;20151;-74
2023/03/10 01:42:09;;;;;;;3.90;1.20;;;;;6.60;92020.00;;;;7403247;19;20497;-78
2023/03/10 01:45:03;;;;;;;2.30;1.60;;;;;6.70;92011.00;;;;7401924;19;20139;-75
2023/03/10 01:47:30;;;;;;;3.73;1.30;;;;;6.70;92002.00;;;;7400755;19;20633;-77
2023/03/10 01:50:09;;;;;;;3.77;1.40;;;;;6.60;91997.00;;;;7403559;19;20543;-74
2023/03/10 01:52:47;;;;;;;3.93;1.20;;;;;6.50;92001.00;;;;7402107;19;20129;-74
2023/03/10 01:55:22;;;;;;;1.53;1.00;;;;;6.60;91998.00;;;;7399091;19;20121;-74
2023/03/10 01:57:56;;;;;;;2.63;1.10;;;;;6.50;91992.00;;;;7401333;19;20596;-74
2023/03/10 02:00:27;;;;;;;3.53;1.40;;;;;6.60;91989.00;;;;7399733;19;20189;-81
2023/03/10 02:03:21;;;;;;;7.23;1.47;;;;;6.60;91982.00;;;;7400881;19;20181;-79
2023/03/10 02:06:03;;;;;;;5.40;1.30;;;;;6.60;91988.00;;;;7401186;19;20596;-81
2023/03/10 02:08:48;;;;;;;1.30;1.00;;;;;6.60;91984.00;;;;7400037;19;20144;-81
2023/03/10 02:11:23;;;;;;;4.10;0.83;;;;;6.50;91980.00;;;;7402216;19;20125;-79
2023/03/10 02:13:59;;;;;;;3.33;1.10;;;;;6.50;91973.00;;;;7401994;19;20132;-82
2023/03/10 02:16:27;;;;;;;1.20;0.90;;;;;6.50;91969.00;;;;7402461;19;20132;-82
2023/03/10 02:19:06;;;;;;;1.67;1.00;;;;;6.60;91961.00;;;;7402030;19;20180;-81
2023/03/10 02:21:45;;;;;;;1.20;1.00;;;;;6.60;91965.00;;;;7402905;19;20129;-80
2023/03/10 02:24:19;;;;;;;1.50;0.80;;;;;6.60;91965.00;;;;7402878;19;20121;-79
2023/03/10 02:27:09;;;;;;;2.30;0.90;;;;;6.50;91963.00;;;;7402778;19;20485;-80
2023/03/10 02:29:51;;;;;;;1.37;0.93;;;;;6.60;91943.00;;;;7396738;19;20500;-84
2023/03/10 02:32:29;;;;;;;2.23;0.90;;;;;6.50;91960.00;;;;7402015;19;20128;-81
2023/03/10 02:35:04;;;;;;;2.57;0.80;;;;;6.50;91945.00;;;;7401350;19;20140;-81
2023/03/10 02:37:34;;;;;;;1.30;0.80;;;;;6.50;91943.00;;;;7401492;19;20575;-80
2023/03/10 02:40:32;;;;;;;0.80;0.60;;;;;6.50;91939.00;;;;7401762;19;20659;-82
2023/03/10 02:43:12;;;;;;;2.03;0.90;;;;;6.50;91939.00;;;;7400412;19;20158;-80
2023/03/10 02:45:49;;;;;;;2.63;0.60;;;;;6.50;91921.00;;;;7401487;19;20180;-80
2023/03/10 02:48:29;;;;;;;1.93;0.60;;;;;6.50;91928.00;;;;7400716;19;20132;-79
2023/03/10 02:51:09;;;;;;;0.90;0.53;;;;;6.40;91925.00;;;;7400267;19;20165;-80
2023/03/10 02:53:36;;;;;;;0.70;0.53;;;;;6.50;91934.00;;;;7400877;19;20256;-80
2023/03/10 02:56:11;;;;;;;0.50;0.50;;;;;6.60;91916.00;;;;7399314;19;20149;-82
2023/03/10 02:58:45;;;;;;;1.00;0.60;;;;;6.40;91928.00;;;;7401821;19;20185;-79
2023/03/10 03:01:19;;;;;;;0.57;0.57;;;;;6.40;91924.00;;;;7400299;19;20143;-80
2023/03/10 03:03:46;;;;;;;2.30;0.60;;;;;6.40;91920.00;;;;7397502;19;20704;-81
2023/03/10 03:06:21;;;;;;;3.37;0.53;;;;;6.50;91926.00;;;;7400329;19;20132;-80
2023/03/10 03:09:02;;;;;;;2.93;0.60;;;;;6.40;91909.00;;;;7399303;19;20600;-82
2023/03/10 03:11:29;;;;;;;3.87;0.63;;;;;6.40;91924.00;;;;7399210;19;20129;-79
2023/03/10 03:14:03;;;;;;;0.60;0.60;;;;;6.60;91915.00;;;;7400018;19;20137;-82
2023/03/10 03:16:37;;;;;;;1.70;0.60;;;;;6.50;91895.00;;;;7400522;19;20152;-80
2023/03/10 03:19:11;;;;;;;1.73;0.50;;;;;6.40;91900.00;;;;7397522;19;20133;-81
2023/03/10 03:21:48;;;;;;;0.57;0.40;;;;;6.50;91881.00;;;;7400568;19;20145;-81
2023/03/10 03:24:22;;;;;;;0.53;0.53;;;;;6.30;91891.00;;;;7399445;19;20129;-81
2023/03/10 03:26:56;;;;;;;1.80;0.73;;;;;6.30;91892.00;;;;7395876;19;20532;-81
2023/03/10 03:29:24;;;;;;;0.90;0.40;;;;;6.40;91887.00;;;;7398911;19;20157;-79
2023/03/10 03:31:58;;;;;;;1.53;0.60;;;;;6.30;91889.00;;;;7399023;19;20151;-79
2023/03/10 03:34:25;;;;;;;1.33;0.80;;;;;6.40;91885.00;;;;7398295;19;20131;-78
2023/03/10 03:37:00;;;;;;;1.07;0.60;;;;;6.40;91878.00;;;;7399146;19;20146;-79
2023/03/10 03:39:34;;;;;;;0.43;0.43;;;;;6.40;91862.00;;;;7399441;19;20593;-78
2023/03/10 03:42:08;;;;;;;0.77;0.57;;;;;6.30;91859.00;;;;7397317;19;20208;-80
2023/03/10 03:44:35;;;;;;;0.77;0.70;;;;;6.30;91869.00;;;;7397925;19;20128;-77
2023/03/10 03:47:04;;;;;;;2.23;0.43;;;;;6.30;91860.00;;;;7398961;19;20136;-79
2023/03/10 03:49:38;;;;;;;1.00;0.60;;;;;6.40;91865.00;;;;7398158;19;20220;-81
2023/03/10 03:52:06;;;;;;;2.23;0.60;;;;;6.30;91877.00;;;;7399005;19;20557;-79
2023/03/10 03:54:41;;;;;;;1.10;0.57;;;;;6.40;91870.00;;;;7399286;19;20516;-79
2023/03/10 03:57:08;;;;;;;0.87;0.67;;;;;6.40;91845.00;;;;7397072;19;20156;-77
2023/03/10 03:59:42;;;;;;;0.97;0.50;;;;;6.40;91851.00;;;;7399206;19;20141;-80
2023/03/10 04:02:16;;;;;;;1.20;0.50;;;;;6.30;91848.00;;;;7397578;19;20596;-80
2023/03/10 04:04:43;;;;;;;0.63;0.40;;;;;6.20;91857.00;;;;7399012;19;20125;-79
2023/03/10 04:07:17;;;;;;;1.30;0.60;;;;;6.20;91854.00;;;;7397551;19;20214;-79
2023/03/10 04:09:57;;;;;;;3.03;0.93;;;;;6.30;91861.00;;;;7397500;19;20212;-79
2023/03/10 04:12:32;;;;;;;1.83;0.43;;;;;6.20;91851.00;;;;7397530;19;20117;-79
2023/03/10 04:15:07;;;;;;;0.83;0.30;;;;;6.30;91844.00;;;;7397269;19;20504;-79
2023/03/10 04:17:41;;;;;;;0.37;0.37;;;;;6.30;91853.00;;;;7397493;19;20148;-80
2023/03/10 04:20:15;;;;;;;0.73;0.43;;;;;6.40;91840.00;;;;7398710;19;20113;-81
2023/03/10 04:22:42;;;;;;;1.90;0.80;;;;;6.30;91841.00;;;;7398190;19;20133;-80
2023/03/10 04:25:19;;;;;;;2.43;0.43;;;;;6.30;91861.00;;;;7398558;19;20136;-79
2023/03/10 04:27:53;;;;;;;0.50;0.50;;;;;6.30;91857.00;;;;7393415;19;20135;-79
2023/03/10 04:30:22;;;;;;;1.37;0.30;;;;;6.40;91864.00;;;;7397972;19;20148;-81
2023/03/10 04:32:58;;;;;;;2.30;0.63;;;;;6.40;91856.00;;;;7398540;19;20592;-77
2023/03/10 04:35:27;;;;;;;1.80;0.60;;;;;6.40;91850.00;;;;7397743;19;20133;-77
2023/03/10 04:38:01;;;;;;;1.97;0.70;;;;;6.20;91832.00;;;;7395583;19;20165;-78
2023/03/10 04:40:35;;;;;;;0.57;0.57;;;;;6.10;91814.00;;;;7398651;19;20133;-79
2023/03/10 04:43:10;;;;;;;0.77;0.60;;;;;6.00;91812.00;;;;7398480;19;20466;-80
2023/03/10 04:45:37;;;;;;;0.77;0.50;;;;;5.90;91811.00;;;;7396411;19;20117;-80
2023/03/10 04:48:11;;;;;;;0.63;0.53;;;;;5.80;91820.00;;;;7398312;19;20160;-80
2023/03/10 04:50:38;;;;;;;4.70;0.70;;;;;5.80;91820.00;;;;7396338;19;20156;-78
2023/03/10 04:53:12;;;;;;;2.10;0.70;;;;;5.70;91826.00;;;;7398029;19;20604;-81
2023/03/10 04:55:39;;;;;;;1.90;0.63;;;;;5.60;91819.00;;;;7401862;19;20140;-80
2023/03/10 04:58:13;;;;;;;2.13;0.80;;;;;5.70;91821.00;;;;7403487;19;20136;-77
2023/03/10 05:00:40;;;;;;;2.37;0.80;;;;;5.70;91811.00;;;;7403112;19;20128;-78
2023/03/10 05:03:28;;;;;;;0.97;0.67;;;;;5.70;91799.00;;;;7400646;19;20173;-77
2023/03/10 05:06:03;;;;;;;2.53;0.87;;;;;5.30;91799.00;;;;7403092;19;20136;-76
2023/03/10 05:08:37;;;;;;;1.80;1.00;;;;;5.50;91797.00;;;;7402876;19;20213;-78
2023/03/10 05:11:11;;;;;;;3.10;0.80;;;;;5.50;91799.00;;;;7404252;19;20133;-77
2023/03/10 05:13:39;;;;;;;3.33;0.80;;;;;5.50;91785.00;;;;7399237;19;20602;-76
2023/03/10 05:16:17;;;;;;;4.67;0.97;;;;;5.40;91788.00;;;;7401108;19;20148;-78
2023/03/10 05:18:51;;;;;;;4.60;0.90;;;;;5.50;91785.00;;;;7403294;19;20146;-77
2023/03/10 05:21:20;;;;;;;1.17;0.60;;;;;5.50;91787.00;;;;7404482;19;20128;-77
2023/03/10 05:23:55;;;;;;;4.00;0.90;;;;;5.30;91789.00;;;;7404337;19;20148;-78
2023/03/10 05:26:23;;;;;;;3.00;1.00;;;;;5.20;91790.00;;;;7398214;19;20164;-82
2023/03/10 05:29:01;;;;;;;4.27;1.20;;;;;5.30;91789.00;;;;7404193;19;20129;-78
2023/03/10 05:31:28;;;;;;;2.63;0.90;;;;;5.60;91791.00;;;;7403210;19;20142;-78
2023/03/10 05:34:03;;;;;;;2.90;0.90;;;;;5.50;91793.00;;;;7402693;19;20155;-77
2023/03/10 05:36:37;;;;;;;1.83;1.03;;;;;5.60;91793.00;;;;7399834;19;20600;-77
2023/03/10 05:39:12;;;;;;;2.20;1.30;;;;;5.60;91799.00;;;;7402824;19;20485;-76
2023/03/10 05:41:40;;;;;;;4.47;1.30;;;;;5.60;91806.00;;;;7403131;19;20534;-75
2023/03/10 05:44:14;;;;;;;4.73;1.43;;;;;5.70;91801.00;;;;7403936;19;20140;-76
2023/03/10 05:46:41;;;;;;;6.40;1.63;;;;;6.00;91792.00;;;;7404370;19;20151;-74
2023/03/10 05:49:15;;;;;;;5.10;1.63;;;;;6.10;91796.00;;;;7403307;19;20144;-76
2023/03/10 05:51:42;;;;;;;5.17;1.60;;;;;6.30;91793.00;;;;7404552;19;20136;-76
2023/03/10 05:54:17;;;;;;;2.10;1.00;;;;;6.20;91793.00;;;;7402733;19;20129;-78
2023/03/10 05:56:46;;;;;;;1.90;0.97;;;;;6.10;91745.00;;;;7399395;19;20125;-76
2023/03/10 05:59:20;;;;;;;3.03;1.30;;;;;6.30;91792.00;;;;7400148;19;20543;-76
2023/03/10 06:01:54;;;;;;;3.30;1.20;;;;;6.20;91796.00;;;;7402436;19;20619;-76
2023/03/10 06:04:22;;;;;;;4.43;1.40;;;;;6.20;91764.00;;;;7402719;19;20128;-76
2023/03/10 06:06:50;;;;;;;4.73;1.40;;;;;6.10;91759.00;;;;7403840;19;20141;-76
2023/03/10 06:09:32;;;;;;;4.00;1.10;;;;;6.00;91726.00;;;;7400780;19;20152;-76
2023/03/10 06:12:07;;;;;;;4.07;1.17;;;;;5.90;91723.00;;;;7401155;19;20477;-77
2023/03/10 06:14:41;;;;;;;4.87;1.27;;;;;5.80;91727.00;;;;7401775;19;20540;-79
2023/03/10 06:17:08;;;;;;;3.33;0.80;;;;;5.90;91753.00;;;;7399393;19;20604;-78
2023/03/10 06:19:46;;;;;;;1.53;0.80;;;;;5.70;91748.00;;;;7401466;19;20204;-78
2023/03/10 06:22:20;;;;;;;0.60;0.47;;;;;5.60;91741.00;;;;7401422;19;20128;-77
2023/03/10 06:24:57;;;;;;;0.67;0.40;;;;;5.60;91736.00;;;;7401478;19;20174;-80
2023/03/10 06:27:31;;;;;;;0.97;0.63;;;;;5.50;91729.00;;;;7396857;19;20144;-76
2023/03/10 06:30:07;;;;;;;0.87;0.50;;;;;5.40;91743.00;;;;7402466;19;20132;-76
2023/03/10 06:32:35;;;;;;;1.90;0.40;;;;;5.40;91738.00;;;;7400213;19;20505;-79
2023/03/10 06:35:13;;;;;;;0.67;0.47;;;;;5.50;91743.00;;;;7400120;19;20130;-77
2023/03/10 06:37:47;;;;;;;1.60;0.40;;;;;5.60;91744.00;;;;7399336;19;20164;-75
2023/03/10 06:40:21;;;;;;;0.30;0.13;;;;;5.60;91724.00;;;;7398325;19;20152;-75
2023/03/10 06:42:49;;;;;;;0.60;0.30;;;;;5.70;91727.00;;;;7399936;19;20147;-78
2023/03/10 06:45:23;;;;;;;0.27;0.20;;;;;5.80;91716.00;;;;7399202;19;20120;-77
2023/03/10 06:47:50;;;;;;;0.73;0.57;;;;;5.80;91720.00;;;;7399161;19;20161;-76
2023/03/10 06:50:24;;;;;;;0.87;0.40;;;;;5.80;91717.00;;;;7399901;19;20205;-79
2023/03/10 06:52:52;;;;;;;0.63;0.30;;;;;5.90;91717.00;;;;7400699;19;20128;-76
2023/03/10 06:55:26;;;;;;;1.73;0.40;;;;;5.70;91712.00;;;;7400025;19;20139;-76
2023/03/10 06:57:53;;;;;;;1.10;0.40;;;;;5.70;91714.00;;;;7399223;19;20204;-77
2023/03/10 07:00:28;;;;;;;0.93;0.50;;;;;5.70;91710.00;;;;7397841;19;20157;-80
2023/03/10 07:02:55;;;;;;;1.27;0.43;;;;;5.70;91705.00;;;;7399226;19;20180;-79
2023/03/10 07:05:29;;;;;;;0.63;0.40;;;;;5.60;91697.00;;;;7401179;19;20458;-78
2023/03/10 07:08:09;;;;;;;0.77;0.20;;;;;5.60;91700.00;;;;7398964;19;20148;-78
2023/03/10 07:10:37;;;;;;;1.13;0.43;;;;;5.70;91712.00;;;;7401049;19;20140;-80
2023/03/10 07:13:14;;;;;;;0.50;0.50;;;;;5.70;91723.00;;;;7398748;19;20121;-79
2023/03/10 07:15:43;;;;;;;0.77;0.60;;;;;5.90;91725.00;;;;7397961;19;20223;-80
2023/03/10 07:18:11;;;;;;;0.40;0.40;;;;;6.10;91721.00;;;;7396748;19;20145;-80
2023/03/10 07:20:46;;;;;;;1.40;0.40;;;;;6.20;91720.00;;;;7400326;19;20152;-78
2023/03/10 07:23:14;;;;;;;1.87;0.87;;;;;6.40;91722.00;;;;7400995;19;20152;-79
2023/03/10 07:25:52;;;;;;;0.70;0.70;;;;;6.50;91727.00;;;;7400505;19;20661;-75
2023/03/10 07:28:19;;;;;;;0.67;0.67;;;;;6.50;91727.00;;;;7395352;19;20255;-80
2023/03/10 07:30:55;;;;;;;1.40;0.60;;;;;6.40;91736.00;;;;7399530;19;20123;-78
2023/03/10 07:33:23;;;;;;;1.67;0.60;;;;;6.20;91739.00;;;;7399778;19;20125;-80
2023/03/10 07:36:02;;;;;;;1.50;0.57;;;;;6.20;91743.00;;;;7399081;19;20129;-78
2023/03/10 07:38:30;;;;;;;1.20;0.70;;;;;6.20;91725.00;;;;7402040;19;20459;-83
2023/03/10 07:41:18;;;;;;;3.40;0.73;;;;;6.00;91721.00;;;;7401499;19;20137;-76
2023/03/10 07:43:53;;;;;;;1.87;0.50;;;;;6.00;91728.00;;;;7400293;19;20493;-82
2023/03/10 07:46:28;;;;;;;0.33;0.33;;;;;6.00;91760.00;;;;7400023;19;20136;-81
2023/03/10 07:49:05;;;;;;;2.90;0.70;;;;;5.90;91751.00;;;;7399624;19;20123;-82
2023/03/10 07:51:33;;;;;;;1.00;0.47;;;;;5.80;91758.00;;;;7398894;19;20783;-80
2023/03/10 07:54:08;;;;;;;2.23;0.70;;;;;5.80;91747.00;;;;7398226;19;20149;-80
2023/03/10 07:56:35;;;;;;;2.97;0.70;;;;;5.50;91749.00;;;;7401044;19;20592;-79
2023/03/10 07:59:03;;;;;;;1.83;0.50;;;;;5.20;91799.00;;;;7398736;19;20153;-77
2023/03/10 08:01:37;;;;;;;2.70;0.40;;;;;5.10;91795.00;;;;7397104;19;20158;-80
2023/03/10 08:04:11;;;;;;;0.63;0.37;;;;;5.30;91793.00;;;;7396700;19;20619;-79
2023/03/10 08:06:46;;;;;;;0.67;0.33;;;;;5.10;91803.00;;;;7399542;19;20583;-79
2023/03/10 08:09:28;;;;;;;3.27;0.50;;;;;5.20;91787.00;;;;7397697;19;20156;-78
2023/03/10 08:11:57;;;;;;;2.33;0.80;;;;;5.10;91804.00;;;;7400866;19;20144;-76
2023/03/10 08:14:31;;;;;;;5.10;0.80;;;;;5.00;91811.00;;;;7399150;19;20117;-78
2023/03/10 08:17:07;;;;;;;2.10;0.80;;;;;5.00;91782.00;;;;7397066;19;20144;-81
2023/03/10 08:19:44;;;;;;;2.57;0.80;;;;;5.20;91796.00;;;;7398296;19;20136;-80
2023/03/10 08:22:18;;;;;;;4.37;1.10;;;;;5.70;91780.00;;;;7394827;19;20480;-81
2023/03/10 08:24:52;;;;;;;3.33;1.07;;;;;6.60;91770.00;;;;7398006;19;20128;-81
2023/03/10 08:27:27;;;;;;;3.00;1.00;;;;;7.20;91777.00;;;;7389355;19;20136;-81
2023/03/10 08:29:55;;;;;;;3.43;0.90;;;;;8.00;91767.00;;;;7401977;19;20136;-81
2023/03/10 08:32:29;;;;;;;1.80;0.60;;;;;8.50;91759.00;;;;7405740;19;20449;-81
2023/03/10 08:35:00;;;;;;;2.97;0.93;;;;;9.10;91766.00;;;;7405060;19;20579;-79
2023/03/10 08:37:34;;;;;;;3.57;0.93;;;;;8.90;91754.00;;;;7399764;19;20598;-77
2023/03/10 08:40:06;;;;;;;7.27;1.17;;;;;8.80;91761.00;;;;7398962;19;20133;-77
2023/03/10 08:42:36;;;;;;;5.07;1.00;;;;;8.80;91760.00;;;;7402974;19;20121;-77
2023/03/10 08:45:12;;;;;;;7.17;1.17;;;;;9.80;91755.00;;;;7399415;19;20129;-78
2023/03/10 08:47:39;;;;;;;5.55;1.50;;;;;9.90;91766.00;;;;7404519;19;20141;-81
2023/03/10 08:50:15;;;;;;;4.07;1.33;;;;;9.50;91778.00;;;;7401004;19;20608;-77
2023/03/10 08:52:43;;;;;;;5.82;1.45;;;;;9.40;91787.00;;;;7401228;19;20200;-80
2023/03/10 08:55:20;;;;;;;6.83;1.30;;;;;8.20;91814.00;;;;7399276;19;20164;-80
2023/03/10 08:57:49;;;;;;;4.90;1.53;;;;;7.50;91803.00;;;;7393458;19;20579;-78
2023/03/10 09:00:23;;;;;;;4.30;1.20;;;;;6.80;91805.00;;;;7398401;19;20538;-78
2023/03/10 09:02:58;;;;;;;6.73;1.63;;;;;6.50;91788.00;;;;7401986;19;20147;-78
2023/03/10 09:05:28;;;;;;;2.17;0.73;;;;;6.80;91808.00;;;;7404780;19;20133;-78
2023/03/10 09:08:11;;;;;;;4.10;0.80;;;;;7.00;91821.00;;;;7400362;19;20136;-78
2023/03/10 09:10:45;;;;;;;2.27;0.80;;;;;6.90;91830.00;;;;7403495;19;20600;-80
2023/03/10 09:13:20;;;;;;;2.73;1.00;;;;;6.70;91828.00;;;;7398712;19;20155;-80
2023/03/10 09:15:54;;;;;;;2.83;0.83;;;;;6.30;91832.00;;;;7402749;19;20151;-82
2023/03/10 09:18:29;;;;;;;2.13;0.70;;;;;6.30;91840.00;;;;7403436;19;20129;-80
2023/03/10 09:21:02;;;;;;;4.23;1.13;;;;;6.30;91843.00;;;;7401161;19;20592;-80
2023/03/10 09:23:30;;;;;;;4.07;0.90;;;;;6.30;91843.00;;;;7403529;19;20136;-79
2023/03/10 09:26:04;;;;;;;5.47;1.03;;;;;6.30;91849.00;;;;7398226;19;20159;-78
2023/03/10 09:28:40;;;;;;;4.57;0.70;;;;;6.40;91846.00;;;;7400577;19;20141;-78
2023/03/10 09:31:10;;;;;;;4.43;0.87;;;;;6.40;91842.00;;;;7399777;19;20631;-77
2023/03/10 09:33:45;;;;;;;4.13;1.00;;;;;6.50;91835.00;;;;7399113;19;20517;-76
2023/03/10 09:36:18;;;;;;;4.37;0.90;;;;;6.70;91827.00;;;;7401297;19;20164;-79
2023/03/10 09:38:48;;;;;;;5.50;0.90;;;;;6.70;91830.00;;;;7400505;19;20140;-80
2023/03/10 09:41:40;;;;;;;4.00;0.90;;;;;6.60;91838.00;;;;7395263;19;20156;-78
2023/03/10 09:44:45;;;;;;;4.03;0.90;;;;;6.60;91834.00;;;;7398657;19;20129;-80
2023/03/10 09:47:32;;;;;;;2.17;0.60;;;;;6.60;91847.00;;;;7401239;19;20477;-80
2023/03/10 09:50:29;;;;;;;3.07;0.73;;;;;6.40;91834.00;;;;7400027;19;20168;-78
2023/03/10 09:53:14;;;;;;;2.60;0.80;;;;;6.40;91852.00;;;;7402808;19;20128;-79
2023/03/10 09:55:49;;;;;;;2.87;0.90;;;;;6.20;91852.00;;;;7402736;19;20147;-78
2023/03/10 09:58:27;;;;;;;1.87;0.80;;;;;6.30;91861.00;;;;7396299;19;20145;-79
2023/03/10 10:01:04;;;;;;;4.00;0.87;;;;;6.10;91847.00;;;;7400861;19;20132;-79
2023/03/10 10:03:35;;;;;;;1.73;0.63;;;;;6.40;91836.00;;;;7399301;19;20155;-79
2023/03/10 10:06:26;;;;;;;6.13;1.20;;;;;6.40;91843.00;;;;7399858;19;20137;-78
2023/03/10 10:09:19;;;;;;;2.27;0.67;;;;;6.40;91842.00;;;;7395092;19;21090;-79
2023/03/10 10:11:54;;;;;;;1.73;0.60;;;;;6.30;91839.00;;;;7399374;19;20592;-79
2023/03/10 10:14:31;;;;;;;2.67;0.53;;;;;6.30;91839.00;;;;7397936;19;20144;-78
2023/03/10 10:17:24;;;;;;;2.60;0.63;;;;;6.30;91831.00;;;;7399679;19;20211;-78
2023/03/10 10:19:52;;;;;;;1.80;0.63;;;;;6.60;91832.00;;;;7400797;19;20128;-76
2023/03/10 10:22:34;;;;;;;2.83;0.53;;;;;6.60;91839.00;;;;7399367;19;20136;-77
2023/03/10 10:25:07;;;;;;;0.97;0.30;;;;;6.60;91840.00;;;;7396438;19;20611;-77
2023/03/10 10:27:44;;;;;;;1.57;0.60;;;;;6.60;91836.00;;;;7398214;19;20642;-79
2023/03/10 10:30:31;;;;;;;2.10;0.50;;;;;6.60;91838.00;;;;7399588;19;20133;-80
2023/03/10 10:33:11;;;;;;;0.30;0.13;;;;;6.80;91835.00;;;;7397463;19;20145;-80
2023/03/10 10:35:42;;;;;;;0.60;0.30;;;;;6.90;91846.00;;;;7399418;19;20141;-77
2023/03/10 10:38:21;;;;;;;0.67;0.50;;;;;6.90;91830.00;;;;7398176;19;20117;-80
2023/03/10 10:41:03;;;;;;;0.60;0.30;;;;;7.10;91826.00;;;;7399155;19;20131;-79
2023/03/10 10:43:44;;;;;;;1.37;0.50;;;;;7.20;91834.00;;;;7398572;19;20173;-81
2023/03/10 10:46:29;;;;;;;0.30;0.23;;;;;6.90;91847.00;;;;7397461;19;20156;-80
2023/03/10 10:49:06;;;;;;;1.03;0.17;;;;;6.70;91849.00;;;;7398179;19;20590;-78
2023/03/10 10:51:40;;;;;;;1.00;0.50;;;;;6.50;91846.00;;;;7397637;19;20132;-77
2023/03/10 10:54:27;;;;;;;0.93;0.40;;;;;6.60;91844.00;;;;7397068;19;20137;-77
2023/03/10 10:57:02;;;;;;;0.40;0.20;;;;;6.40;91859.00;;;;7394879;19;20165;-79
2023/03/10 10:59:36;;;;;;;1.90;0.60;;;;;6.40;91847.00;;;;7396663;19;20147;-79
2023/03/10 11:02:31;;;;;;;2.00;0.50;;;;;6.80;91847.00;;;;7394451;19;20152;-80
2023/03/10 11:05:17;;;;;;;0.60;0.37;;;;;6.70;91850.00;;;;7398002;19;20592;-80
2023/03/10 11:07:51;;;;;;;0.70;0.17;;;;;6.40;91856.00;;;;7400783;19;20589;-79
2023/03/10 11:10:32;;;;;;;1.03;0.50;;;;;6.60;91872.00;;;;7393398;19;20186;-77
2023/03/10 11:13:20;;;;;;;0.80;0.47;;;;;6.70;91857.00;;;;7398584;19;20477;-79
2023/03/10 11:16:10;;;;;;;0.40;0.20;;;;;6.50;91872.00;;;;7395712;19;20507;-78
2023/03/10 11:19:20;;;;;;;0.73;0.30;;;;;6.30;91869.00;;;;7395347;19;20174;-78
2023/03/10 11:22:03;;;;;;;1.93;0.47;;;;;6.50;91865.00;;;;7400129;19;20141;-79
2023/03/10 11:24:49;;;;;;;2.10;0.47;;;;;6.40;91873.00;;;;7396291;19;20161;-78
2023/03/10 11:27:40;;;;;;;1.33;0.37;;;;;6.80;91878.00;;;;7393872;19;20152;-78
2023/03/10 11:30:37;;;;;;;1.77;0.17;;;;;6.80;91870.00;;;;7398496;19;20149;-80
2023/03/10 11:33:21;;;;;;;0.83;0.20;;;;;6.80;91883.00;;;;7397247;19;20196;-80
2023/03/10 11:36:15;;;;;;;0.67;0.30;;;;;6.60;91885.00;;;;7395291;19;20140;-81
2023/03/10 11:38:47;;;;;;;0.37;0.20;;;;;6.50;91866.00;;;;7389867;19;20734;-79
2023/03/10 11:41:26;;;;;;;1.50;0.30;;;;;6.60;91873.00;;;;7396768;19;20129;-78
2023/03/10 11:43:53;;;;;;;0.67;0.30;;;;;6.40;91864.00;;;;7391686;19;20530;-80
2023/03/10 11:46:43;;;;;;;2.47;0.50;;;;;6.80;91858.00;;;;7397087;19;20133;-77
2023/03/10 11:49:16;;;;;;;2.63;0.40;;;;;7.00;91858.00;;;;7396993;19;20155;-80
2023/03/10 11:52:00;;;;;;;0.93;0.20;;;;;7.00;91858.00;;;;7395506;19;20125;-80
2023/03/10 11:54:41;;;;;;;0.10;0.10;;;;;7.20;91863.00;;;;7393296;19;20211;-81
2023/03/10 11:57:15;;;;;;;0.20;0.17;;;;;6.90;91852.00;;;;7395722;19;20136;-81
2023/03/10 11:59:55;;;;;;;1.30;0.23;;;;;6.80;91856.00;;;;7395182;19;20181;-81
2023/03/10 12:02:44;;;;;;;1.03;0.20;;;;;6.80;91853.00;;;;7391431;19;20622;-80
2023/03/10 12:05:23;;;;;;;0.80;0.20;;;;;7.00;91843.00;;;;7396564;19;20476;-78
2023/03/10 12:07:54;;;;;;;0.57;0.30;;;;;6.70;91841.00;;;;7392777;19;20163;-79
2023/03/10 12:10:40;;;;;;;0.67;0.20;;;;;6.90;91839.00;;;;7393772;19;20687;-80
2023/03/10 12:13:20;;;;;;;0.30;0.17;;;;;7.20;91849.00;;;;7396901;19;20477;-80
2023/03/10 12:15:59;;;;;;;0.20;0.20;;;;;7.00;91846.00;;;;7396530;19;20625;-77
2023/03/10 12:18:35;;;;;;;0.37;0.17;;;;;7.40;91839.00;;;;7395583;19;20486;-78
2023/03/10 12:21:17;;;;;;;0.17;0.17;;;;;7.40;91855.00;;;;7394312;19;20140;-79
2023/03/10 12:23:49;;;;;;;0.10;0.10;;;;;7.40;91842.00;;;;7393924;19;20125;-80
2023/03/10 12:26:39;;;;;;;0.10;0.10;;;;;7.40;91856.00;;;;7395566;19;20571;-81
2023/03/10 12:29:31;;;;;;;0.63;0.30;;;;;7.10;91844.00;;;;7396661;19;20136;-80
2023/03/10 12:32:25;;;;;;;0.33;0.30;;;;;7.50;91834.00;;;;7392447;19;20145;-81
2023/03/10 12:35:20;;;;;;;2.07;0.40;;;;;7.20;91861.00;;;;7398005;19;20136;-78
2023/03/10 12:38:09;;;;;;;0.70;0.37;;;;;6.80;91861.00;;;;7395981;19;20639;-78
2023/03/10 12:40:51;;;;;;;0.10;0.10;;;;;6.60;91863.00;;;;7394592;19;20144;-77
2023/03/10 12:43:46;;;;;;;0.10;0.10;;;;;7.10;91855.00;;;;7395739;19;20144;-81
2023/03/10 12:46:59;;;;;;;0.83;0.20;;;;;7.30;91843.00;;;;7393060;19;20216;-81
2023/03/10 12:49:46;;;;;;;0.20;0.20;;;;;7.90;91847.00;;;;7392751;19;20160;-81
2023/03/10 12:52:23;;;;;;;0.80;0.20;;;;;7.10;91847.00;;;;7395920;19;20156;-81
2023/03/10 12:55:15;;;;;;;1.57;0.17;;;;;7.10;91835.00;;;;7393748;19;20185;-79
2023/03/10 12:58:10;;;;;;;1.83;0.27;;;;;7.30;91854.00;;;;7393875;19;20133;-81
2023/03/10 13:00:59;;;;;;;0.30;0.10;;;;;6.70;91851.00;;;;7393994;19;20151;-81
2023/03/10 13:03:40;;;;;;;0.37;0.10;;;;;6.50;91845.00;;;;7389105;19;20529;-79
2023/03/10 13:06:44;;;;;;;0.30;0.13;;;;;6.40;91870.00;;;;7393030;19;20196;-83
2023/03/10 13:09:31;;;;;;;0.20;0.03;;;;;6.10;91858.00;;;;7392453;19;20616;-82
2023/03/10 13:12:30;;;;;;;1.60;0.23;;;;;6.10;91856.00;;;;7393369;19;20224;-83